Time;durP1;ratioP1;P1;durP2;ratioP2;P2;SDS_P1;SDS_P2;PMS_P1;PMS_P2;Temp;Humidity;BMP_temperature;BMP_pressure;BME280_temperature;BME280_humidity;BME280_pressure;Samples;Min_cycle;Max_cycle;Signal;HPM_P1;HPM_P2
2021/08/01 00:01:05;;;;;;;19.75;16.33;;;15.20;99.90;;;;;;5129434;27;20056;-44
2021/08/01 00:03:32;;;;;;;21.08;16.85;;;15.10;99.90;;;;;;5154362;27;20042;-45
2021/08/01 00:05:58;;;;;;;22.67;19.02;;;15.10;99.90;;;;;;5150327;27;20570;-46
2021/08/01 00:08:24;;;;;;;22.70;18.35;;;15.00;99.90;;;;;;5150419;27;20099;-47
2021/08/01 00:10:55;;;;;;;23.50;19.02;;;15.00;99.90;;;;;;5148576;27;20042;-45
2021/08/01 00:13:21;;;;;;;24.02;17.15;;;15.00;99.90;;;;;;5132797;27;20059;-45
2021/08/01 00:15:47;;;;;;;20.38;18.17;;;14.90;99.90;;;;;;5143987;27;20164;-44
2021/08/01 00:18:13;;;;;;;23.67;19.60;;;14.90;99.90;;;;;;5147435;27;20495;-46
2021/08/01 00:20:41;;;;;;;19.58;16.90;;;14.90;99.90;;;;;;5149079;27;20212;-44
2021/08/01 00:23:10;;;;;;;22.13;18.40;;;14.90;99.90;;;;;;5153770;27;20087;-45
2021/08/01 00:25:39;;;;;;;23.52;19.40;;;14.80;99.90;;;;;;5132344;27;20463;-45
2021/08/01 00:28:05;;;;;;;20.73;18.58;;;14.80;99.90;;;;;;5136271;27;20047;-45
2021/08/01 00:30:31;;;;;;;23.85;19.25;;;14.70;99.90;;;;;;5147317;27;20054;-46
2021/08/01 00:32:57;;;;;;;20.98;18.75;;;14.70;99.90;;;;;;5147891;27;20127;-45
2021/08/01 00:35:23;;;;;;;25.08;19.27;;;14.60;99.90;;;;;;5129484;27;20050;-46
2021/08/01 00:37:53;;;;;;;21.88;19.48;;;14.60;99.90;;;;;;5130381;27;20745;-46
2021/08/01 00:40:20;;;;;;;26.58;21.23;;;14.60;99.90;;;;;;5117426;27;20075;-45
2021/08/01 00:42:47;;;;;;;22.58;20.08;;;14.50;99.90;;;;;;5122516;27;20134;-44
2021/08/01 00:45:13;;;;;;;24.80;20.15;;;14.50;99.90;;;;;;5149966;27;20045;-45
2021/08/01 00:47:42;;;;;;;29.05;20.63;;;14.50;99.90;;;;;;5130565;27;20054;-45
2021/08/01 00:50:13;;;;;;;24.23;19.67;;;14.50;99.90;;;;;;5141754;27;20123;-44
2021/08/01 00:52:40;;;;;;;26.70;20.88;;;14.50;99.90;;;;;;5118947;27;20092;-44
2021/08/01 00:55:09;;;;;;;30.17;21.55;;;14.40;99.90;;;;;;5122045;27;20776;-46
2021/08/01 00:57:37;;;;;;;29.67;22.30;;;14.40;99.90;;;;;;5129442;27;20053;-45
2021/08/01 01:00:13;;;;;;;25.20;22.15;;;14.40;99.90;;;;;;5129391;27;20074;-46
2021/08/01 01:02:46;;;;;;;28.27;22.55;;;14.30;99.90;;;;;;5112625;27;20423;-44
2021/08/01 01:05:31;;;;;;;30.85;24.25;;;14.30;99.90;;;;;;5136364;27;20665;-45
2021/08/01 01:08:13;;;;;;;33.22;24.77;;;14.40;99.90;;;;;;5149415;27;20058;-46
2021/08/01 01:11:12;;;;;;;28.67;21.97;;;14.40;99.90;;;;;;5049058;28;20480;-46
2021/08/01 01:13:45;;;;;;;27.20;24.13;;;14.40;99.90;;;;;;5041945;28;20072;-46
2021/08/01 01:16:12;;;;;;;33.13;24.38;;;14.40;99.90;;;;;;5044580;28;20451;-45
2021/08/01 01:18:59;;;;;;;29.70;24.95;;;14.50;99.90;;;;;;5044802;28;20045;-44
2021/08/01 01:21:32;;;;;;;36.53;24.38;;;14.50;99.90;;;;;;5030186;28;20057;-45
2021/08/01 01:24:04;;;;;;;;;;;14.50;99.90;;;;;;5044982;28;20622;-46
2021/08/01 01:27:14;;;;;;;32.58;22.58;;;14.50;99.90;;;;;;5051413;28;20385;-44
2021/08/01 01:29:53;;;;;;;28.45;24.05;;;14.50;99.90;;;;;;5049231;28;20136;-46
2021/08/01 01:32:25;;;;;;;36.47;24.73;;;14.50;99.90;;;;;;5047270;28;20061;-44
2021/08/01 01:34:58;;;;;;;;;;;14.50;99.90;;;;;;5047816;28;20080;-45
2021/08/01 01:37:25;;;;;;;30.40;23.98;;;14.50;99.90;;;;;;5032377;28;19924;-45
2021/08/01 01:39:52;;;;;;;29.67;24.83;;;14.50;99.90;;;;;;5048834;28;20060;-45
2021/08/01 01:42:43;;;;;;;28.95;23.80;;;14.50;99.90;;;;;;5044964;28;20094;-45
2021/08/01 01:45:18;;;;;;;26.45;23.63;;;14.50;99.90;;;;;;5029674;28;20053;-46
2021/08/01 01:47:50;;;;;;;30.65;24.90;;;14.50;99.90;;;;;;5097255;27;20086;-45
2021/08/01 01:50:21;;;;;;;33.10;26.73;;;14.50;99.90;;;;;;5127592;27;20780;-46
2021/08/01 01:52:50;;;;;;;35.55;26.25;;;14.40;99.90;;;;;;5133054;27;20095;-45
2021/08/01 01:55:19;;;;;;;32.60;24.70;;;14.40;99.90;;;;;;5144214;27;20137;-45
2021/08/01 01:57:48;;;;;;;33.40;26.85;;;14.40;99.90;;;;;;5131814;27;20521;-45
2021/08/01 02:00:16;;;;;;;34.63;26.15;;;14.40;99.90;;;;;;5130065;27;20050;-46
2021/08/01 02:02:45;;;;;;;36.85;27.65;;;14.40;99.90;;;;;;5148982;27;20053;-44
2021/08/01 02:05:42;;;;;;;32.97;26.42;;;14.30;99.90;;;;;;5133402;27;20123;-45
2021/08/01 02:08:54;;;;;;;32.58;27.48;;;14.40;99.90;;;;;;5046815;28;20052;-44
2021/08/01 02:11:49;;;;;;;33.28;25.02;;;14.40;99.90;;;;;;5050012;28;20055;-47
2021/08/01 02:14:39;;;;;;;34.20;25.90;;;14.30;99.90;;;;;;5032047;28;20056;-45
2021/08/01 02:17:11;;;;;;;32.22;26.55;;;14.30;99.90;;;;;;5045733;28;20049;-47
2021/08/01 02:19:43;;;;;;;31.05;27.10;;;14.30;99.90;;;;;;5048151;28;20049;-45
2021/08/01 02:22:12;;;;;;;41.95;27.88;;;14.30;99.90;;;;;;5033877;28;20040;-45
2021/08/01 02:24:41;;;;;;;39.30;29.35;;;14.30;99.90;;;;;;5032019;28;20071;-46
2021/08/01 02:27:10;;;;;;;40.05;29.88;;;14.30;99.90;;;;;;5046074;28;20048;-45
2021/08/01 02:29:38;;;;;;;39.80;30.45;;;14.30;99.90;;;;;;5051034;28;20048;-45
2021/08/01 02:32:06;;;;;;;40.60;30.85;;;14.40;99.90;;;;;;5051463;28;20057;-45
2021/08/01 02:34:37;;;;;;;39.55;31.10;;;14.40;99.90;;;;;;5050190;28;20080;-46
2021/08/01 02:37:06;;;;;;;44.30;32.00;;;14.40;99.90;;;;;;5040851;28;20076;-45
2021/08/01 02:39:36;;;;;;;36.13;29.65;;;14.40;99.90;;;;;;5089447;27;20059;-45
2021/08/01 02:42:07;;;;;;;46.10;31.02;;;14.40;99.90;;;;;;5125533;27;20085;-45
2021/08/01 02:44:37;;;;;;;45.83;32.00;;;14.40;99.90;;;;;;5134866;27;20042;-45
2021/08/01 02:47:08;;;;;;;43.35;30.58;;;14.40;99.90;;;;;;5132922;27;20474;-46
2021/08/01 02:49:40;;;;;;;42.92;30.08;;;14.40;99.90;;;;;;5137420;27;20042;-45
2021/08/01 02:52:15;;;;;;;41.25;30.90;;;14.50;99.90;;;;;;5132540;27;20076;-45
2021/08/01 02:54:49;;;;;;;41.83;30.95;;;14.50;99.90;;;;;;5133334;27;20051;-46
2021/08/01 02:57:18;;;;;;;41.55;30.40;;;14.50;99.90;;;;;;5133390;27;20047;-45
2021/08/01 02:59:46;;;;;;;40.88;29.55;;;14.40;99.90;;;;;;5102151;27;20124;-45
2021/08/01 03:02:13;;;;;;;41.75;30.75;;;14.50;99.90;;;;;;5119704;27;20043;-45
2021/08/01 03:05:00;;;;;;;38.42;31.70;;;14.50;99.90;;;;;;5130544;27;20501;-45
2021/08/01 03:07:29;;;;;;;42.65;30.70;;;14.50;99.90;;;;;;5132506;27;20082;-45
2021/08/01 03:09:55;;;;;;;44.15;33.20;;;14.50;99.90;;;;;;5147097;27;20506;-45
2021/08/01 03:12:22;;;;;;;43.63;33.17;;;14.50;99.90;;;;;;5152367;27;20043;-45
2021/08/01 03:14:49;;;;;;;45.53;32.92;;;14.50;99.90;;;;;;5114849;27;20480;-46
2021/08/01 03:17:16;;;;;;;48.80;34.13;;;14.50;99.90;;;;;;5132815;27;20504;-44
2021/08/01 03:19:43;;;;;;;49.42;33.40;;;14.60;99.90;;;;;;5147150;27;20062;-44
2021/08/01 03:22:12;;;;;;;46.38;32.08;;;14.60;99.90;;;;;;5114818;27;20055;-45
2021/08/01 03:24:40;;;;;;;42.22;31.48;;;14.60;99.90;;;;;;5134644;27;20055;-45
2021/08/01 03:27:13;;;;;;;45.47;32.05;;;14.60;99.90;;;;;;5150986;27;20058;-45
2021/08/01 03:29:42;;;;;;;48.53;32.95;;;14.70;99.90;;;;;;5130819;27;20048;-45
2021/08/01 03:32:15;;;;;;;43.60;32.67;;;14.70;99.90;;;;;;5132740;27;20075;-45
2021/08/01 03:34:42;;;;;;;44.40;33.08;;;14.70;99.90;;;;;;5134923;27;20050;-46
2021/08/01 03:37:09;;;;;;;49.15;34.22;;;14.70;99.90;;;;;;5112160;27;20126;-45
2021/08/01 03:40:05;;;;;;;50.95;35.15;;;14.70;99.90;;;;;;5047560;28;20401;-44
2021/08/01 03:42:32;;;;;;;38.70;30.45;;;14.80;99.90;;;;;;5076728;28;20162;-45
2021/08/01 03:44:58;;;;;;;47.63;34.28;;;14.80;99.90;;;;;;5051842;28;20044;-45
2021/08/01 03:47:24;;;;;;;49.42;35.50;;;14.80;99.90;;;;;;5048917;28;20044;-45
2021/08/01 03:49:50;;;;;;;48.03;34.53;;;14.80;99.90;;;;;;5074465;28;20060;-45
2021/08/01 03:52:17;;;;;;;46.55;35.30;;;14.90;99.90;;;;;;5054689;28;20044;-46
2021/08/01 03:54:45;;;;;;;42.97;32.15;;;14.90;99.90;;;;;;5066589;28;20068;-46
2021/08/01 03:57:13;;;;;;;43.10;33.92;;;14.90;99.90;;;;;;5063868;28;20060;-46
2021/08/01 03:59:39;;;;;;;43.42;32.67;;;14.90;99.90;;;;;;5064496;28;20444;-45
2021/08/01 04:02:07;;;;;;;43.45;34.85;;;14.90;99.90;;;;;;5063075;28;20048;-45
2021/08/01 04:04:42;;;;;;;59.08;37.92;;;14.90;99.90;;;;;;5062959;28;20059;-46
2021/08/01 04:07:08;;;;;;;49.25;36.33;;;14.90;99.90;;;;;;5060575;28;20049;-46
2021/08/01 04:09:34;;;;;;;49.45;36.03;;;14.90;99.90;;;;;;5069095;28;20170;-47
2021/08/01 04:12:02;;;;;;;55.58;36.58;;;14.90;99.90;;;;;;5062563;28;20177;-45
2021/08/01 04:14:31;;;;;;;51.85;37.97;;;14.90;99.90;;;;;;5058151;28;20047;-48
2021/08/01 04:17:00;;;;;;;46.28;34.70;;;14.90;99.90;;;;;;5119249;27;20054;-46
2021/08/01 04:19:27;;;;;;;51.55;36.83;;;15.00;99.90;;;;;;5131289;27;20042;-46
2021/08/01 04:21:54;;;;;;;50.67;36.80;;;15.00;99.90;;;;;;5153327;27;20137;-45
2021/08/01 04:24:20;;;;;;;54.38;37.60;;;15.00;99.90;;;;;;5146884;27;20135;-45
2021/08/01 04:26:46;;;;;;;51.55;36.30;;;15.00;99.90;;;;;;5148391;27;20043;-47
2021/08/01 04:29:15;;;;;;;48.97;37.15;;;15.00;99.90;;;;;;5132861;27;20043;-45
2021/08/01 04:31:41;;;;;;;57.00;38.60;;;15.10;99.90;;;;;;5142252;27;20051;-45
2021/08/01 04:34:07;;;;;;;60.78;39.85;;;15.10;99.90;;;;;;5145867;27;20043;-46
2021/08/01 04:36:33;;;;;;;56.67;38.20;;;15.10;99.90;;;;;;5149706;27;20054;-45
2021/08/01 04:38:59;;;;;;;54.83;36.35;;;15.10;99.90;;;;;;5129136;27;20580;-46
2021/08/01 04:41:26;;;;;;;47.30;35.97;;;15.10;99.90;;;;;;5139707;27;20141;-45
2021/08/01 04:43:52;;;;;;;53.33;36.22;;;15.10;99.90;;;;;;5105897;27;20077;-45
2021/08/01 04:46:18;;;;;;;53.58;37.13;;;15.10;99.90;;;;;;5148286;27;20076;-46
2021/08/01 04:48:44;;;;;;;54.95;37.53;;;15.10;99.90;;;;;;5127937;27;20085;-44
2021/08/01 04:51:10;;;;;;;56.40;38.55;;;15.10;99.90;;;;;;5128073;27;20761;-45
2021/08/01 04:53:37;;;;;;;47.75;35.20;;;15.10;99.90;;;;;;5146620;27;20061;-45
2021/08/01 04:56:08;;;;;;;46.95;33.28;;;15.10;99.90;;;;;;5147735;27;20050;-47
2021/08/01 04:58:34;;;;;;;52.08;35.08;;;15.10;99.90;;;;;;5148180;27;20058;-45
2021/08/01 05:01:14;;;;;;;53.70;35.88;;;15.10;99.90;;;;;;5146774;27;20098;-46
2021/08/01 05:03:40;;;;;;;52.20;35.42;;;15.10;99.90;;;;;;5143337;27;20093;-45
2021/08/01 05:06:06;;;;;;;48.55;33.75;;;15.20;99.90;;;;;;5145567;27;20050;-45
2021/08/01 05:08:34;;;;;;;57.28;37.05;;;15.10;99.90;;;;;;5153191;27;20081;-45
2021/08/01 05:11:04;;;;;;;48.92;34.58;;;15.20;99.90;;;;;;5132666;27;20091;-48
2021/08/01 05:13:30;;;;;;;54.53;37.00;;;15.20;99.90;;;;;;5099453;27;20503;-45
2021/08/01 05:15:56;;;;;;;48.15;33.38;;;15.30;99.90;;;;;;5152743;27;20050;-45
2021/08/01 05:18:22;;;;;;;46.90;33.13;;;15.40;99.90;;;;;;5152793;27;20047;-46
2021/08/01 05:20:48;;;;;;;47.70;34.08;;;15.40;99.90;;;;;;5143157;27;20051;-46
2021/08/01 05:23:15;;;;;;;49.28;33.50;;;15.40;99.90;;;;;;5136822;27;20038;-45
2021/08/01 05:25:41;;;;;;;41.22;30.92;;;15.50;99.90;;;;;;5110624;27;20046;-46
2021/08/01 05:28:07;;;;;;;45.22;32.15;;;15.60;99.90;;;;;;5148273;27;20383;-44
2021/08/01 05:30:33;;;;;;;42.13;32.50;;;15.70;99.90;;;;;;5153832;27;20069;-47
2021/08/01 05:33:07;;;;;;;42.03;31.85;;;15.70;99.90;;;;;;5152643;27;20430;-46
2021/08/01 05:35:36;;;;;;;38.30;29.13;;;15.90;99.90;;;;;;5142956;27;20042;-47
2021/08/01 05:38:02;;;;;;;42.30;31.23;;;15.90;99.90;;;;;;5145708;27;20047;-46
2021/08/01 05:40:29;;;;;;;56.10;44.80;;;16.00;99.90;;;;;;5145342;27;20046;-45
2021/08/01 05:42:56;;;;;;;62.67;54.20;;;15.90;99.90;;;;;;5143614;27;20064;-46
2021/08/01 05:45:28;;;;;;;75.80;62.75;;;15.90;99.90;;;;;;5152544;27;20058;-47
2021/08/01 05:47:55;;;;;;;69.10;52.80;;;16.00;99.90;;;;;;5153718;27;20107;-46
2021/08/01 05:50:21;;;;;;;45.95;34.38;;;15.90;99.90;;;;;;5133979;27;20043;-47
2021/08/01 05:52:48;;;;;;;58.78;50.63;;;15.90;99.90;;;;;;5152344;27;20054;-47
2021/08/01 05:55:15;;;;;;;45.05;32.03;;;15.90;99.90;;;;;;5159641;27;20517;-46
2021/08/01 05:57:41;;;;;;;46.60;37.03;;;15.90;99.90;;;;;;5150789;27;20050;-50
2021/08/01 06:00:08;;;;;;;48.63;34.05;;;15.90;99.90;;;;;;5152299;27;20093;-48
2021/08/01 06:02:34;;;;;;;48.42;33.10;;;15.90;99.90;;;;;;5142433;27;20046;-46
2021/08/01 06:05:00;;;;;;;46.13;33.90;;;15.90;99.90;;;;;;5144718;27;20054;-47
2021/08/01 06:07:26;;;;;;;134.73;109.07;;;15.90;99.90;;;;;;5159728;27;20045;-47
2021/08/01 06:09:53;;;;;;;136.75;120.72;;;15.90;99.90;;;;;;5151946;27;20183;-48
2021/08/01 06:12:19;;;;;;;87.38;75.13;;;16.00;99.90;;;;;;5148839;27;20050;-50
2021/08/01 06:14:49;;;;;;;59.58;40.13;;;16.00;99.90;;;;;;5147149;27;20641;-48
2021/08/01 06:17:15;;;;;;;45.75;35.47;;;16.00;99.90;;;;;;5139058;27;20043;-49
2021/08/01 06:19:41;;;;;;;46.28;30.77;;;16.00;99.90;;;;;;5122329;27;20099;-48
2021/08/01 06:22:07;;;;;;;56.65;43.22;;;16.00;99.90;;;;;;5137462;27;20119;-47
2021/08/01 06:24:33;;;;;;;42.97;31.85;;;16.00;99.90;;;;;;5125474;27;20101;-50
2021/08/01 06:27:01;;;;;;;53.83;34.38;;;16.00;99.90;;;;;;5141463;27;20046;-51
2021/08/01 06:29:27;;;;;;;44.38;34.85;;;16.10;99.90;;;;;;5135553;27;20047;-49
2021/08/01 06:31:54;;;;;;;40.20;33.30;;;16.00;99.90;;;;;;5139413;27;20054;-49
2021/08/01 06:34:20;;;;;;;44.60;31.05;;;16.00;99.90;;;;;;5138660;27;20053;-47
2021/08/01 06:36:46;;;;;;;63.05;50.65;;;16.00;99.90;;;;;;5150451;27;20050;-48
2021/08/01 06:39:12;;;;;;;49.72;35.63;;;16.10;99.90;;;;;;5127769;27;20444;-49
2021/08/01 06:41:38;;;;;;;44.38;34.70;;;16.10;99.90;;;;;;5142583;27;20046;-50
2021/08/01 06:44:04;;;;;;;46.53;35.25;;;16.10;99.90;;;;;;5131432;27;20066;-49
2021/08/01 06:46:30;;;;;;;54.42;39.83;;;16.20;99.90;;;;;;5141604;27;20789;-49
2021/08/01 06:48:56;;;;;;;55.65;42.63;;;16.20;99.90;;;;;;5144616;27;20042;-50
2021/08/01 06:51:23;;;;;;;59.78;49.58;;;16.30;99.90;;;;;;5152168;27;20069;-49
2021/08/01 06:53:49;;;;;;;50.25;34.80;;;16.40;99.90;;;;;;5150742;27;20759;-50
2021/08/01 06:56:15;;;;;;;46.88;36.00;;;16.50;99.90;;;;;;5152640;27;20562;-48
2021/08/01 06:58:41;;;;;;;45.70;35.03;;;16.60;99.90;;;;;;5152341;27;20055;-49
2021/08/01 07:01:07;;;;;;;41.72;33.17;;;16.60;99.90;;;;;;5152336;27;20054;-47
2021/08/01 07:03:34;;;;;;;113.97;100.03;;;16.70;99.90;;;;;;5151101;27;20494;-48
2021/08/01 07:06:00;;;;;;;44.53;35.13;;;16.70;99.90;;;;;;5147267;27;20063;-46
2021/08/01 07:08:26;;;;;;;45.28;33.97;;;16.60;99.90;;;;;;5109706;27;20162;-48
2021/08/01 07:10:52;;;;;;;43.47;33.97;;;16.70;99.90;;;;;;5117210;27;20054;-45
2021/08/01 07:13:19;;;;;;;46.40;34.10;;;16.70;99.90;;;;;;5150255;27;20134;-47
2021/08/01 07:15:45;;;;;;;47.22;33.20;;;16.80;99.90;;;;;;5149301;27;20379;-47
2021/08/01 07:18:11;;;;;;;45.22;33.70;;;16.80;99.90;;;;;;5150802;27;20074;-47
2021/08/01 07:20:40;;;;;;;46.67;33.55;;;16.80;99.90;;;;;;5144304;27;20499;-46
2021/08/01 07:23:09;;;;;;;51.08;37.30;;;16.80;99.90;;;;;;5125012;27;20410;-46
2021/08/01 07:25:36;;;;;;;45.90;34.15;;;16.80;99.90;;;;;;5148531;27;20042;-47
2021/08/01 07:28:04;;;;;;;44.85;35.40;;;16.80;99.90;;;;;;5151129;27;20198;-46
2021/08/01 07:30:38;;;;;;;41.15;34.22;;;16.80;99.90;;;;;;5151749;27;20536;-48
2021/08/01 07:33:07;;;;;;;46.05;33.38;;;16.70;99.90;;;;;;5109458;27;20403;-48
2021/08/01 07:35:36;;;;;;;42.95;34.17;;;16.70;99.90;;;;;;5122435;27;20126;-50
2021/08/01 07:38:02;;;;;;;47.95;37.20;;;16.60;99.90;;;;;;5149832;27;20054;-49
2021/08/01 07:40:28;;;;;;;44.47;35.13;;;16.60;99.90;;;;;;5141070;27;20043;-48
2021/08/01 07:42:54;;;;;;;45.85;36.13;;;16.60;99.90;;;;;;5131779;27;20039;-49
2021/08/01 07:47:49;;;;;;;50.00;34.20;;;16.50;99.90;;;;;;5139321;27;20043;-47
2021/08/01 07:50:16;;;;;;;46.22;35.60;;;16.60;99.90;;;;;;5148138;27;20467;-48
2021/08/01 07:52:42;;;;;;;47.28;36.72;;;16.50;99.90;;;;;;5140840;27;20058;-50
2021/08/01 07:55:14;;;;;;;48.75;36.03;;;16.50;99.90;;;;;;5118790;27;20066;-49
2021/08/01 07:57:41;;;;;;;49.60;37.80;;;16.60;99.90;;;;;;5130295;27;20453;-51
2021/08/01 08:00:08;;;;;;;52.45;38.90;;;16.70;99.90;;;;;;5128935;27;20051;-50
2021/08/01 08:02:43;;;;;;;44.13;36.50;;;16.80;99.90;;;;;;5136943;27;20486;-49
2021/08/01 08:05:10;;;;;;;46.58;36.42;;;16.90;99.90;;;;;;5131141;27;20375;-48
2021/08/01 08:07:37;;;;;;;44.03;35.92;;;17.10;99.90;;;;;;5143292;27;20499;-48
2021/08/01 08:10:04;;;;;;;42.22;33.50;;;17.20;99.90;;;;;;5148894;27;20093;-48
2021/08/01 08:12:31;;;;;;;39.28;33.35;;;17.30;99.90;;;;;;5150143;27;20111;-50
2021/08/01 08:14:57;;;;;;;39.33;33.38;;;17.40;99.90;;;;;;5130869;27;20053;-50
2021/08/01 08:17:24;;;;;;;44.60;33.70;;;17.40;99.90;;;;;;5146634;27;20061;-47
2021/08/01 08:19:50;;;;;;;40.55;34.25;;;17.50;99.90;;;;;;5129336;27;20047;-47
2021/08/01 08:22:16;;;;;;;43.42;35.38;;;17.40;99.90;;;;;;5129782;27;20050;-51
2021/08/01 08:24:42;;;;;;;42.03;33.35;;;17.30;99.90;;;;;;5145322;27;20072;-47
2021/08/01 08:27:08;;;;;;;39.95;31.30;;;17.10;99.90;;;;;;5149324;27;20047;-49
2021/08/01 08:29:35;;;;;;;40.03;31.73;;;17.00;99.90;;;;;;5152227;27;20129;-49
2021/08/01 08:32:01;;;;;;;36.85;29.98;;;16.90;99.90;;;;;;5107694;27;20054;-49
2021/08/01 08:34:28;;;;;;;28.98;25.73;;;16.90;99.90;;;;;;5147820;27;20043;-47
2021/08/01 08:37:00;;;;;;;30.30;26.05;;;16.80;99.90;;;;;;5148710;27;20046;-47
2021/08/01 08:39:27;;;;;;;20.77;18.20;;;16.70;99.90;;;;;;5143880;27;20057;-47
2021/08/01 08:41:57;;;;;;;16.25;13.77;;;16.70;99.90;;;;;;5145677;27;20055;-48
2021/08/01 08:44:23;;;;;;;11.80;9.00;;;16.60;99.90;;;;;;5149083;27;20077;-48
2021/08/01 08:46:53;;;;;;;11.88;10.55;;;16.50;99.90;;;;;;5145087;27;20716;-47
2021/08/01 08:49:21;;;;;;;9.93;8.93;;;16.40;99.90;;;;;;5149748;27;20094;-48
2021/08/01 08:51:49;;;;;;;7.15;6.07;;;16.40;99.90;;;;;;5146155;27;20047;-47
2021/08/01 08:54:19;;;;;;;4.05;2.70;;;16.30;99.90;;;;;;5148854;27;20050;-49
2021/08/01 08:56:47;;;;;;;3.38;2.10;;;16.30;99.90;;;;;;5130926;27;20071;-46
2021/08/01 08:59:21;;;;;;;2.72;2.22;;;16.30;99.90;;;;;;5119882;27;20459;-48
2021/08/01 09:01:48;;;;;;;3.83;2.38;;;16.30;99.90;;;;;;5156022;27;20043;-45
2021/08/01 09:04:14;;;;;;;2.88;1.70;;;16.30;99.90;;;;;;5149268;27;20049;-47
2021/08/01 09:06:41;;;;;;;3.03;2.08;;;16.30;99.90;;;;;;5149594;27;20069;-47
2021/08/01 09:09:10;;;;;;;2.92;2.00;;;16.30;99.90;;;;;;5148845;27;20053;-46
2021/08/01 09:11:36;;;;;;;2.75;2.22;;;16.20;99.90;;;;;;5148837;27;20043;-47
2021/08/01 09:14:04;;;;;;;2.85;2.30;;;16.10;99.90;;;;;;5149588;27;20055;-46
2021/08/01 09:16:45;;;;;;;2.20;1.80;;;16.20;99.90;;;;;;5149180;27;20057;-47
2021/08/01 09:19:36;;;;;;;3.35;2.28;;;16.10;99.90;;;;;;5149195;27;20051;-47
2021/08/01 09:22:22;;;;;;;3.22;2.10;;;16.10;99.90;;;;;;5151006;27;20117;-47
2021/08/01 09:24:54;;;;;;;2.67;2.00;;;16.10;99.90;;;;;;5151635;27;20050;-49
2021/08/01 09:27:34;;;;;;;2.72;2.03;;;16.10;99.90;;;;;;5147945;27;20055;-48
2021/08/01 09:30:02;;;;;;;3.17;2.10;;;16.10;99.90;;;;;;5154657;27;20474;-49
2021/08/01 09:32:43;;;;;;;2.70;1.95;;;16.10;99.90;;;;;;5145619;27;20047;-46
2021/08/01 09:35:19;;;;;;;4.75;2.33;;;16.10;99.90;;;;;;5150311;27;20139;-47
2021/08/01 09:37:56;;;;;;;2.47;1.67;;;16.20;99.90;;;;;;5145671;27;20562;-47
2021/08/01 09:40:28;;;;;;;4.13;2.13;;;16.20;99.90;;;;;;5132702;27;20097;-46
2021/08/01 09:43:04;;;;;;;3.10;1.90;;;16.40;99.90;;;;;;5139141;27;20065;-48
2021/08/01 09:45:30;;;;;;;1.80;1.40;;;16.60;99.90;;;;;;5149259;27;20691;-47
2021/08/01 09:48:19;;;;;;;2.65;2.20;;;16.80;99.90;;;;;;5149102;27;20761;-48
2021/08/01 09:51:06;;;;;;;4.82;2.50;;;17.00;99.90;;;;;;5143296;27;20154;-48
2021/08/01 09:53:33;;;;;;;3.63;2.30;;;17.40;99.90;;;;;;5144343;27;20050;-48
2021/08/01 09:56:17;;;;;;;2.63;1.92;;;17.60;99.90;;;;;;5132742;27;20137;-51
2021/08/01 09:58:49;;;;;;;2.33;2.05;;;17.60;99.90;;;;;;5140668;27;20042;-48
2021/08/01 10:01:16;;;;;;;3.67;2.20;;;17.60;99.90;;;;;;5140241;27;20055;-49
2021/08/01 10:03:47;;;;;;;2.83;2.08;;;17.60;99.90;;;;;;5133722;27;20079;-48
2021/08/01 10:06:17;;;;;;;4.35;2.50;;;17.70;99.90;;;;;;5138747;27;20124;-48
2021/08/01 10:08:53;;;;;;;3.05;2.20;;;17.80;99.90;;;;;;5113659;27;20055;-46
2021/08/01 10:11:22;;;;;;;2.90;2.30;;;17.80;99.90;;;;;;5144272;27;20069;-47
2021/08/01 10:13:51;;;;;;;3.65;2.28;;;17.90;99.90;;;;;;5146942;27;20235;-47
2021/08/01 10:16:18;;;;;;;4.28;2.28;;;17.80;99.90;;;;;;5133456;27;20158;-47
2021/08/01 10:18:46;;;;;;;4.38;2.47;;;17.90;99.90;;;;;;5158183;27;20051;-46
2021/08/01 10:21:18;;;;;;;4.13;2.78;;;18.00;99.90;;;;;;5151637;27;20039;-46
2021/08/01 10:23:46;;;;;;;4.20;2.80;;;18.20;99.90;;;;;;5139455;27;20044;-50
2021/08/01 10:26:14;;;;;;;3.25;2.65;;;18.00;99.90;;;;;;5148872;27;20513;-47
2021/08/01 10:28:50;;;;;;;3.40;2.88;;;18.40;99.90;;;;;;5114638;27;20574;-46
2021/08/01 10:31:37;;;;;;;4.03;2.80;;;18.60;99.90;;;;;;5121237;27;20058;-52
2021/08/01 10:34:03;;;;;;;3.42;2.70;;;18.90;99.90;;;;;;5145593;27;20441;-47
2021/08/01 10:36:30;;;;;;;3.30;2.55;;;18.90;99.90;;;;;;5128202;27;20054;-46
2021/08/01 10:39:04;;;;;;;2.80;2.58;;;19.00;99.90;;;;;;5151807;27;20047;-50
2021/08/01 10:41:35;;;;;;;4.22;3.17;;;18.90;99.90;;;;;;5144738;27;20081;-46
2021/08/01 10:44:08;;;;;;;3.53;3.03;;;18.80;99.90;;;;;;5138816;27;20051;-49
2021/08/01 10:46:36;;;;;;;4.15;3.30;;;18.60;99.90;;;;;;5132292;27;20465;-50
2021/08/01 10:49:03;;;;;;;4.22;3.35;;;18.50;99.90;;;;;;5113130;27;20058;-48
2021/08/01 10:51:31;;;;;;;5.75;3.78;;;18.50;99.90;;;;;;5144705;27;20050;-46
2021/08/01 10:54:33;;;;;;;4.38;3.72;;;18.60;99.90;;;;;;5140892;27;20057;-49
2021/08/01 10:57:16;;;;;;;5.40;3.70;;;18.70;99.90;;;;;;5052457;28;20049;-50
2021/08/01 10:59:45;;;;;;;7.55;5.68;;;18.90;99.90;;;;;;5062965;28;20048;-49
2021/08/01 11:02:16;;;;;;;5.63;3.80;;;19.20;99.90;;;;;;5063005;28;20121;-51
2021/08/01 11:04:46;;;;;;;9.40;8.32;;;19.20;99.90;;;;;;5064150;28;20052;-49
2021/08/01 11:07:26;;;;;;;5.80;4.63;;;19.40;99.90;;;;;;5064884;28;20064;-53
2021/08/01 11:10:04;;;;;;;5.07;4.53;;;19.30;99.90;;;;;;5047159;28;20141;-50
2021/08/01 11:12:32;;;;;;;7.07;6.13;;;19.20;99.90;;;;;;5060834;28;20151;-50
2021/08/01 11:15:06;;;;;;;5.53;4.78;;;19.10;99.90;;;;;;5065257;28;20088;-53
2021/08/01 11:17:51;;;;;;;4.90;4.40;;;19.20;99.90;;;;;;5058815;28;20658;-49
2021/08/01 11:20:20;;;;;;;5.78;4.55;;;19.10;99.90;;;;;;5039732;28;20064;-52
2021/08/01 11:22:46;;;;;;;5.78;4.72;;;19.00;99.90;;;;;;5062633;28;20073;-53
2021/08/01 11:25:19;;;;;;;8.57;6.85;;;19.00;99.90;;;;;;5046459;28;20378;-51
2021/08/01 11:28:10;;;;;;;10.43;9.38;;;18.90;99.90;;;;;;5056361;28;20093;-54
2021/08/01 11:30:55;;;;;;;11.87;7.87;;;18.80;99.90;;;;;;5088067;27;20047;-55
2021/08/01 11:33:39;;;;;;;6.40;5.80;;;18.80;99.90;;;;;;5143205;27;20047;-52
2021/08/01 11:36:17;;;;;;;6.78;5.75;;;18.70;99.90;;;;;;5149016;27;20042;-48
2021/08/01 11:38:52;;;;;;;6.80;5.78;;;18.70;99.90;;;;;;5150236;27;20070;-51
2021/08/01 11:41:35;;;;;;;6.07;5.47;;;18.80;99.90;;;;;;5137877;27;20043;-51
2021/08/01 11:44:06;;;;;;;6.85;5.80;;;18.80;99.90;;;;;;5148609;27;20083;-48
2021/08/01 11:47:01;;;;;;;6.28;5.65;;;18.80;99.90;;;;;;5146219;27;20760;-48
2021/08/01 11:49:42;;;;;;;5.72;5.13;;;18.90;99.90;;;;;;5131851;27;20047;-51
2021/08/01 11:52:13;;;;;;;5.82;4.88;;;18.80;99.90;;;;;;5147253;27;20054;-49
2021/08/01 11:54:42;;;;;;;7.97;6.47;;;18.70;99.90;;;;;;5148756;27;20600;-49
2021/08/01 11:57:13;;;;;;;7.32;6.63;;;18.70;99.90;;;;;;5147427;27;20453;-49
2021/08/01 11:59:41;;;;;;;7.03;6.28;;;18.60;99.90;;;;;;5130975;27;20095;-49
2021/08/01 12:02:10;;;;;;;8.43;7.05;;;18.30;99.90;;;;;;5149340;27;20046;-49
2021/08/01 12:04:38;;;;;;;7.50;6.80;;;18.20;99.90;;;;;;5136972;27;20069;-49
2021/08/01 12:07:05;;;;;;;6.70;6.00;;;18.20;99.90;;;;;;5144402;27;20042;-49
2021/08/01 12:09:39;;;;;;;10.65;9.57;;;18.20;99.90;;;;;;5124067;27;20533;-48
2021/08/01 12:12:07;;;;;;;16.10;14.40;;;18.20;99.90;;;;;;5136213;27;20050;-52
2021/08/01 12:14:42;;;;;;;8.82;7.90;;;18.50;99.90;;;;;;5149929;27;20577;-51
2021/08/01 12:17:12;;;;;;;11.70;10.50;;;18.60;99.90;;;;;;5139810;27;20898;-49
2021/08/01 12:19:51;;;;;;;11.70;10.57;;;18.70;99.90;;;;;;5130907;27;20182;-50
2021/08/01 12:22:20;;;;;;;10.35;9.35;;;18.80;99.90;;;;;;5137392;27;20114;-49
2021/08/01 12:24:56;;;;;;;8.73;7.93;;;19.10;99.90;;;;;;5142479;27;20050;-49
2021/08/01 12:27:37;;;;;;;12.25;11.10;;;19.20;99.90;;;;;;5141463;27;20075;-49
2021/08/01 12:30:07;;;;;;;10.05;9.05;;;19.20;99.90;;;;;;5145948;27;20050;-47
2021/08/01 12:32:35;;;;;;;8.23;7.38;;;19.40;99.90;;;;;;5148887;27;20102;-50
2021/08/01 12:35:14;;;;;;;8.52;7.10;;;19.70;99.90;;;;;;5129242;27;20117;-51
2021/08/01 12:37:45;;;;;;;6.18;5.35;;;20.20;99.90;;;;;;5139550;27;20066;-47
2021/08/01 12:40:15;;;;;;;7.00;6.22;;;20.70;99.90;;;;;;5135600;27;20042;-49
2021/08/01 12:42:52;;;;;;;4.75;4.00;;;20.70;99.90;;;;;;5141028;27;20047;-48
2021/08/01 12:45:22;;;;;;;18.70;16.77;;;20.60;99.90;;;;;;5154821;27;20045;-47
2021/08/01 12:47:49;;;;;;;13.73;12.32;;;20.60;99.90;;;;;;5148733;27;20498;-48
2021/08/01 12:50:16;;;;;;;12.25;10.15;;;20.80;99.90;;;;;;5126096;27;20107;-48
2021/08/01 12:52:43;;;;;;;4.85;4.15;;;20.50;99.90;;;;;;5129328;27;20559;-48